createdAt,value
2017-10-04T00:01:06.241Z,8.6
2017-10-04T00:02:14.096Z,8.6
2017-10-04T00:03:21.563Z,8.6
2017-10-04T00:04:29.038Z,8.6
2017-10-04T00:05:36.506Z,8.6
2017-10-04T00:06:43.973Z,8.6
2017-10-04T00:07:52.028Z,8.5
2017-10-04T00:08:59.498Z,8.5
2017-10-04T00:10:06.969Z,8.5
2017-10-04T00:11:14.439Z,8.5
2017-10-04T00:12:21.908Z,8.5
2017-10-04T00:13:29.726Z,8.4
2017-10-04T00:14:37.221Z,8.4
2017-10-04T00:15:44.360Z,8.4
2017-10-04T00:16:51.168Z,8.4
2017-10-04T00:17:58.634Z,8.4
2017-10-04T00:19:06.475Z,8.4
2017-10-04T00:20:13.949Z,8.4
2017-10-04T00:21:21.433Z,8.5
2017-10-04T00:22:29.130Z,8.5
2017-10-04T00:23:36.599Z,8.4
2017-10-04T00:24:44.419Z,8.4
2017-10-04T00:25:51.888Z,8.4
2017-10-04T00:26:59.028Z,8.4
2017-10-04T00:28:06.162Z,8.4
2017-10-04T00:29:13.627Z,8.3
2017-10-04T00:30:21.110Z,8.3
2017-10-04T00:31:28.583Z,8.3
2017-10-04T00:32:36.053Z,8.3
2017-10-04T00:33:43.527Z,8.3
2017-10-04T00:34:50.996Z,8.3
2017-10-04T00:35:58.491Z,8.3
2017-10-04T00:37:05.963Z,8.3
2017-10-04T00:38:13.459Z,8.2
2017-10-04T00:39:21.164Z,8.3
2017-10-04T00:40:28.636Z,8.3
2017-10-04T00:41:36.108Z,8.3
2017-10-04T00:42:43.580Z,8.3
2017-10-04T00:43:51.051Z,8.2
2017-10-04T00:44:58.533Z,8.2
2017-10-04T00:46:06.021Z,8.2
2017-10-04T00:47:13.840Z,8.2
2017-10-04T00:48:20.969Z,8.2
2017-10-04T00:49:28.442Z,8.2
2017-10-04T00:50:35.917Z,8.2
2017-10-04T00:51:43.390Z,8.2
2017-10-04T00:52:51.202Z,8.2
2017-10-04T00:53:58.672Z,8.2
2017-10-04T00:55:06.146Z,8.2
2017-10-04T00:56:13.614Z,8.2
2017-10-04T00:57:21.084Z,8.2
2017-10-04T00:58:28.557Z,8.2
2017-10-04T00:59:36.039Z,8.2
2017-10-04T01:00:43.509Z,8.2
2017-10-04T01:01:50.977Z,8.2
2017-10-04T01:02:58.463Z,8.1
2017-10-04T01:04:05.600Z,8.1
2017-10-04T01:05:13.068Z,8.1
2017-10-04T01:06:20.211Z,8.1
2017-10-04T01:07:27.678Z,8.1
2017-10-04T01:08:34.819Z,8.1
2017-10-04T01:09:42.292Z,8.1
2017-10-04T01:10:49.759Z,8.1
2017-10-04T01:11:57.233Z,8.1
2017-10-04T01:13:04.693Z,8
2017-10-04T01:14:12.164Z,8.1
2017-10-04T01:15:19.629Z,8
2017-10-04T01:16:27.099Z,8
2017-10-04T01:17:34.567Z,8
2017-10-04T01:18:42.064Z,8.1
2017-10-04T01:19:49.524Z,8
2017-10-04T01:20:56.664Z,8
2017-10-04T01:22:04.133Z,8
2017-10-04T01:23:11.268Z,8
2017-10-04T01:24:18.744Z,8
2017-10-04T01:25:26.212Z,8
2017-10-04T01:26:33.676Z,8
2017-10-04T01:27:41.149Z,8
2017-10-04T01:28:48.621Z,8
2017-10-04T01:29:55.426Z,8
2017-10-04T01:31:02.900Z,8
2017-10-04T01:32:10.365Z,7.9
2017-10-04T01:33:17.508Z,7.9
2017-10-04T01:34:24.637Z,7.9
2017-10-04T01:35:33.371Z,7.9
2017-10-04T01:36:41.004Z,7.9
2017-10-04T01:37:48.494Z,7.9
2017-10-04T01:38:55.966Z,7.9
2017-10-04T01:40:03.435Z,7.9
2017-10-04T01:41:10.908Z,7.9
2017-10-04T01:42:18.378Z,7.8
2017-10-04T01:43:25.508Z,7.8
2017-10-04T01:44:32.983Z,7.8
2017-10-04T01:45:40.448Z,7.8
2017-10-04T01:46:47.933Z,7.8
2017-10-04T01:47:55.075Z,7.8
2017-10-04T01:49:02.542Z,7.8
2017-10-04T01:50:09.688Z,7.8
2017-10-04T01:51:17.162Z,7.8
2017-10-04T01:52:24.629Z,7.8
2017-10-04T01:53:31.767Z,7.8
2017-10-04T01:54:39.241Z,7.8
2017-10-04T01:55:46.710Z,7.8
2017-10-04T01:56:53.851Z,7.8
2017-10-04T01:58:00.987Z,7.8
2017-10-04T01:59:08.459Z,7.8
2017-10-04T02:00:15.926Z,7.8
2017-10-04T02:01:23.391Z,7.8
2017-10-04T02:02:30.534Z,7.8
2017-10-04T02:03:37.679Z,7.8
2017-10-04T02:04:45.146Z,7.8
2017-10-04T02:05:52.617Z,7.8
2017-10-04T02:07:00.709Z,7.8
2017-10-04T02:08:08.177Z,7.8
2017-10-04T02:09:15.662Z,7.8
2017-10-04T02:10:23.133Z,7.8
2017-10-04T02:11:30.629Z,7.7
2017-10-04T02:12:37.769Z,7.7
2017-10-04T02:13:45.243Z,7.7
2017-10-04T02:14:52.706Z,7.7
2017-10-04T02:16:00.177Z,7.7
2017-10-04T02:17:07.647Z,7.7
2017-10-04T02:18:15.114Z,7.6
2017-10-04T02:19:22.586Z,7.7
2017-10-04T02:20:30.052Z,7.6
2017-10-04T02:21:37.875Z,7.6
2017-10-04T02:22:45.347Z,7.6
2017-10-04T02:23:52.849Z,7.6
2017-10-04T02:24:59.983Z,7.6
2017-10-04T02:26:09.271Z,7.5
2017-10-04T02:27:17.090Z,7.6
2017-10-04T02:28:24.574Z,7.6
2017-10-04T02:29:32.043Z,7.5
2017-10-04T02:30:39.517Z,7.5
2017-10-04T02:31:46.648Z,7.5
2017-10-04T02:32:54.469Z,7.5
2017-10-04T02:34:01.939Z,7.4
2017-10-04T02:35:09.409Z,7.4
2017-10-04T02:36:16.879Z,7.4
2017-10-04T02:37:24.351Z,7.3
2017-10-04T02:38:31.821Z,7.4
2017-10-04T02:39:39.291Z,7.3
2017-10-04T02:40:46.765Z,7.3
2017-10-04T02:41:54.234Z,7.3
2017-10-04T02:43:01.730Z,7.3
2017-10-04T02:44:09.203Z,7.2
2017-10-04T02:45:16.670Z,7.2
2017-10-04T02:46:24.293Z,7.2
2017-10-04T02:47:31.757Z,7.2
2017-10-04T02:48:38.898Z,7.2
2017-10-04T02:49:46.360Z,7.1
2017-10-04T02:50:53.834Z,7.1
2017-10-04T02:52:01.314Z,7.1
2017-10-04T02:53:08.782Z,7.1
2017-10-04T02:54:16.248Z,7.1
2017-10-04T02:55:23.383Z,7.1
2017-10-04T02:56:30.190Z,7.1
2017-10-04T02:57:37.660Z,7.1
2017-10-04T02:58:45.131Z,7
2017-10-04T02:59:52.275Z,7
2017-10-04T03:00:59.742Z,7
2017-10-04T03:02:07.218Z,7
2017-10-04T03:03:14.918Z,7
2017-10-04T03:04:22.389Z,7
2017-10-04T03:05:29.856Z,7
2017-10-04T03:06:37.331Z,6.9
2017-10-04T03:07:44.465Z,6.9
2017-10-04T03:08:51.934Z,6.9
2017-10-04T03:09:59.424Z,6.9
2017-10-04T03:11:06.892Z,6.8
2017-10-04T03:12:14.363Z,6.8
2017-10-04T03:13:21.828Z,6.8
2017-10-04T03:14:28.962Z,6.8
2017-10-04T03:15:36.098Z,6.8
2017-10-04T03:16:43.579Z,6.8
2017-10-04T03:17:51.047Z,6.7
2017-10-04T03:18:58.534Z,6.7
2017-10-04T03:20:06.002Z,6.6
2017-10-04T03:21:13.471Z,6.6
2017-10-04T03:22:20.937Z,6.6
2017-10-04T03:23:28.404Z,6.6
2017-10-04T03:24:35.897Z,6.7
2017-10-04T03:25:43.369Z,6.6
2017-10-04T03:26:50.507Z,6.6
2017-10-04T03:27:57.975Z,6.6
2017-10-04T03:29:05.120Z,6.6
2017-10-04T03:30:12.587Z,6.6
2017-10-04T03:31:20.059Z,6.6
2017-10-04T03:32:27.744Z,6.7
2017-10-04T03:33:35.208Z,6.6
2017-10-04T03:34:42.677Z,6.6
2017-10-04T03:35:50.146Z,6.6
2017-10-04T03:36:57.281Z,6.6
2017-10-04T03:38:04.750Z,6.6
2017-10-04T03:39:12.222Z,6.6
2017-10-04T03:40:19.359Z,6.6
2017-10-04T03:41:26.828Z,6.6
2017-10-04T03:42:34.293Z,6.6
2017-10-04T03:43:41.862Z,6.6
2017-10-04T03:44:49.328Z,6.6
2017-10-04T03:45:56.800Z,6.6
2017-10-04T03:47:04.273Z,6.5
2017-10-04T03:48:11.755Z,6.6
2017-10-04T03:49:19.222Z,6.5
2017-10-04T03:50:26.587Z,6.5
2017-10-04T03:51:34.059Z,6.5
2017-10-04T03:52:41.528Z,6.5
2017-10-04T03:53:48.997Z,6.5
2017-10-04T03:54:56.502Z,6.5
2017-10-04T03:56:03.970Z,6.5
2017-10-04T03:57:11.436Z,6.5
2017-10-04T03:58:18.908Z,6.5
2017-10-04T03:59:26.377Z,6.5
2017-10-04T04:00:34.095Z,6.5
2017-10-04T04:01:41.564Z,6.6
2017-10-04T04:02:49.068Z,6.6
2017-10-04T04:03:56.539Z,6.6
2017-10-04T04:05:04.021Z,6.6
2017-10-04T04:06:11.505Z,6.6
2017-10-04T04:07:18.634Z,6.6
2017-10-04T04:08:25.767Z,6.6
2017-10-04T04:09:33.263Z,6.6
2017-10-04T04:10:40.737Z,6.5
2017-10-04T04:11:48.764Z,6.6
2017-10-04T04:12:56.232Z,6.6
2017-10-04T04:14:03.731Z,6.6
2017-10-04T04:15:11.201Z,6.6
2017-10-04T04:16:18.685Z,6.6
2017-10-04T04:17:26.504Z,6.6
2017-10-04T04:18:33.965Z,6.6
2017-10-04T04:19:41.438Z,6.5
2017-10-04T04:20:48.909Z,6.5
2017-10-04T04:21:56.390Z,6.5
2017-10-04T04:23:04.203Z,6.5
2017-10-04T04:24:11.000Z,6.5
2017-10-04T04:25:18.152Z,6.6
2017-10-04T04:26:25.628Z,6.5
2017-10-04T04:27:33.092Z,6.5
2017-10-04T04:28:40.561Z,6.5
2017-10-04T04:29:47.699Z,6.5
2017-10-04T04:30:54.496Z,6.5
2017-10-04T04:32:01.963Z,6.5
2017-10-04T04:33:09.431Z,6.5
2017-10-04T04:34:17.249Z,6.5
2017-10-04T04:35:24.716Z,6.5
2017-10-04T04:36:32.184Z,6.5
2017-10-04T04:37:39.652Z,6.5
2017-10-04T04:38:47.127Z,6.5
2017-10-04T04:39:54.590Z,6.5
2017-10-04T04:41:01.726Z,6.5
2017-10-04T04:42:08.867Z,6.5
2017-10-04T04:43:16.342Z,6.5
2017-10-04T04:44:23.478Z,6.5
2017-10-04T04:45:30.961Z,6.5
2017-10-04T04:46:38.455Z,6.5
2017-10-04T04:47:45.915Z,6.4
2017-10-04T04:48:53.056Z,6.5
2017-10-04T04:50:00.537Z,6.5
2017-10-04T04:51:08.005Z,6.5
2017-10-04T04:52:15.475Z,6.5
2017-10-04T04:53:22.949Z,6.5
2017-10-04T04:54:30.417Z,6.5
2017-10-04T04:55:37.886Z,6.5
2017-10-04T04:56:45.361Z,6.5
2017-10-04T04:57:52.834Z,6.5
2017-10-04T04:59:00.299Z,6.4
2017-10-04T05:00:07.768Z,6.4
2017-10-04T05:01:15.234Z,6.4
2017-10-04T05:02:22.366Z,6.4
2017-10-04T05:03:29.493Z,6.4
2017-10-04T05:04:36.962Z,6.5
2017-10-04T05:05:44.427Z,6.5
2017-10-04T05:06:51.916Z,6.5
2017-10-04T05:07:59.387Z,6.5
2017-10-04T05:09:07.115Z,6.5
2017-10-04T05:10:14.589Z,6.5
2017-10-04T05:11:21.723Z,6.5
2017-10-04T05:12:29.196Z,6.6
2017-10-04T05:13:36.667Z,6.6
2017-10-04T05:14:44.135Z,6.5
2017-10-04T05:15:51.604Z,6.5
2017-10-04T05:16:59.075Z,6.5
2017-10-04T05:18:06.544Z,6.6
2017-10-04T05:19:14.004Z,6.6
2017-10-04T05:20:21.493Z,6.6
2017-10-04T05:21:28.973Z,6.7
2017-10-04T05:22:36.445Z,6.7
2017-10-04T05:23:43.581Z,6.7
2017-10-04T05:24:51.046Z,6.7
2017-10-04T05:25:58.535Z,6.7
2017-10-04T05:27:06.001Z,6.7
2017-10-04T05:28:13.472Z,6.7
2017-10-04T05:29:20.941Z,6.7
2017-10-04T05:30:28.335Z,6.7
2017-10-04T05:31:35.473Z,6.7
2017-10-04T05:32:42.614Z,6.7
2017-10-04T05:33:50.088Z,6.7
2017-10-04T05:34:57.559Z,6.7
2017-10-04T05:36:04.720Z,6.7
2017-10-04T05:37:11.858Z,6.7
2017-10-04T05:38:19.005Z,6.7
2017-10-04T05:39:26.475Z,6.8
2017-10-04T05:40:33.942Z,6.8
2017-10-04T05:41:41.424Z,6.8
2017-10-04T05:42:48.608Z,6.9
2017-10-04T05:43:56.079Z,6.8
2017-10-04T05:45:03.563Z,6.8
2017-10-04T05:46:11.045Z,6.9
2017-10-04T05:47:18.585Z,6.9
2017-10-04T05:48:25.716Z,6.9
2017-10-04T05:49:33.187Z,6.9
2017-10-04T05:50:40.655Z,6.9
2017-10-04T05:51:48.122Z,7
2017-10-04T05:52:55.603Z,7
2017-10-04T05:54:03.073Z,7
2017-10-04T05:55:25.130Z,7
2017-10-04T05:56:32.268Z,7
2017-10-04T05:57:39.737Z,7
2017-10-04T05:58:47.307Z,7.1
2017-10-04T05:59:54.780Z,7.1
2017-10-04T06:01:02.243Z,7.1
2017-10-04T06:02:09.717Z,7.1
2017-10-04T06:03:17.195Z,7.2
2017-10-04T06:04:24.367Z,7.1
2017-10-04T06:05:31.836Z,7.1
2017-10-04T06:06:39.302Z,7.2
2017-10-04T06:07:46.772Z,7.1
2017-10-04T06:08:53.905Z,7.2
2017-10-04T06:10:01.476Z,7.2
2017-10-04T06:11:08.951Z,7.2
2017-10-04T06:12:16.422Z,7.2
2017-10-04T06:13:23.888Z,7.2
2017-10-04T06:14:31.358Z,7.3
2017-10-04T06:15:38.826Z,7.3
2017-10-04T06:16:46.293Z,7.3
2017-10-04T06:17:53.761Z,7.3
2017-10-04T06:19:00.908Z,7.4
2017-10-04T06:20:08.366Z,7.4
2017-10-04T06:21:15.511Z,7.4
2017-10-04T06:22:24.451Z,7.4
2017-10-04T06:23:31.927Z,7.4
2017-10-04T06:24:39.401Z,7.4
2017-10-04T06:25:46.540Z,7.5
2017-10-04T06:26:54.013Z,7.5
2017-10-04T06:28:01.838Z,7.5
2017-10-04T06:29:09.307Z,7.6
2017-10-04T06:30:16.777Z,7.6
2017-10-04T06:31:24.249Z,7.6
2017-10-04T06:32:31.718Z,7.6
2017-10-04T06:33:39.203Z,7.6
2017-10-04T06:34:46.670Z,7.7
2017-10-04T06:35:54.140Z,7.7
2017-10-04T06:37:01.609Z,7.7
2017-10-04T06:38:09.078Z,7.7
2017-10-04T06:39:16.763Z,7.8
2017-10-04T06:40:24.469Z,7.8
2017-10-04T06:41:31.935Z,7.8
2017-10-04T06:42:39.420Z,7.8
2017-10-04T06:43:48.205Z,7.9
2017-10-04T06:44:55.674Z,7.9
2017-10-04T06:46:03.145Z,7.9
2017-10-04T06:47:10.277Z,8
2017-10-04T06:48:17.748Z,8
2017-10-04T06:49:25.573Z,8
2017-10-04T06:50:33.048Z,8
2017-10-04T06:51:40.201Z,8.1
2017-10-04T06:52:47.667Z,8.2
2017-10-04T06:53:55.138Z,8.2
2017-10-04T06:55:02.963Z,8.3
2017-10-04T06:56:10.435Z,8.3
2017-10-04T06:57:17.911Z,8.3
2017-10-04T06:58:25.377Z,8.4
2017-10-04T06:59:32.846Z,8.4
2017-10-04T07:00:40.347Z,8.4
2017-10-04T07:01:47.488Z,8.5
2017-10-04T07:02:54.964Z,8.5
2017-10-04T07:04:02.433Z,8.5
2017-10-04T07:05:09.908Z,8.5
2017-10-04T07:06:17.374Z,8.5
2017-10-04T07:07:24.838Z,8.5
2017-10-04T07:08:31.973Z,8.5
2017-10-04T07:09:39.440Z,8.5
2017-10-04T07:10:46.904Z,8.5
2017-10-04T07:11:53.708Z,8.5
2017-10-04T07:13:01.196Z,8.6
2017-10-04T07:14:08.666Z,8.6
2017-10-04T07:15:16.133Z,8.7
2017-10-04T07:16:23.610Z,8.7
2017-10-04T07:17:31.084Z,8.8
2017-10-04T07:18:38.555Z,9
2017-10-04T07:19:46.380Z,9.2
2017-10-04T07:20:53.858Z,9.3
2017-10-04T07:22:01.341Z,9.4
2017-10-04T07:23:08.505Z,9.4
2017-10-04T07:24:16.558Z,9.6
2017-10-04T07:25:24.382Z,9.7
2017-10-04T07:26:31.869Z,9.8
2017-10-04T07:27:39.354Z,9.8
2017-10-04T07:28:46.486Z,9.9
2017-10-04T07:29:53.624Z,9.9
2017-10-04T07:31:01.092Z,9.9
2017-10-04T07:32:08.235Z,9.9
2017-10-04T07:33:15.706Z,9.9
2017-10-04T07:34:23.177Z,10
2017-10-04T07:35:30.659Z,9.9
2017-10-04T07:36:38.479Z,9.9
2017-10-04T07:37:46.156Z,9.9
2017-10-04T07:38:53.624Z,9.8
2017-10-04T07:40:01.095Z,9.8
2017-10-04T07:41:08.585Z,9.8
2017-10-04T07:42:16.469Z,9.8
2017-10-04T07:43:23.611Z,9.9
2017-10-04T07:44:30.765Z,9.9
2017-10-04T07:45:37.902Z,10
2017-10-04T07:46:45.039Z,10
2017-10-04T07:47:52.527Z,9.9
2017-10-04T07:48:59.991Z,10
2017-10-04T07:50:06.790Z,9.9
2017-10-04T07:51:14.270Z,10
2017-10-04T07:52:21.745Z,10
2017-10-04T07:53:29.567Z,10.1
2017-10-04T07:54:37.036Z,10.1
2017-10-04T07:55:44.180Z,10.2
2017-10-04T07:56:51.649Z,10.2
2017-10-04T07:57:59.134Z,10.3
2017-10-04T07:59:06.607Z,10.3
2017-10-04T08:00:14.073Z,10.4
2017-10-04T08:01:21.542Z,10.4
2017-10-04T08:02:28.675Z,10.5
2017-10-04T08:03:36.514Z,10.6
2017-10-04T08:04:43.995Z,10.8
2017-10-04T08:05:51.151Z,10.9
2017-10-04T08:06:58.638Z,10.9
2017-10-04T08:08:05.798Z,11.2
2017-10-04T08:09:13.621Z,11.3
2017-10-04T08:10:21.093Z,11.3
2017-10-04T08:11:28.564Z,11.4
2017-10-04T08:12:35.579Z,11.4
2017-10-04T08:13:43.053Z,11.4
2017-10-04T08:14:50.874Z,11.2
2017-10-04T08:15:58.343Z,11.2
2017-10-04T08:17:05.528Z,11.1
2017-10-04T08:18:13.005Z,11.2
2017-10-04T08:19:20.141Z,11.2
2017-10-04T08:20:27.614Z,11.2
2017-10-04T08:21:35.085Z,11.3
2017-10-04T08:22:42.557Z,11.4
2017-10-04T08:23:49.693Z,11.4
2017-10-04T08:24:57.516Z,11.4
2017-10-04T08:26:05.005Z,11.4
2017-10-04T08:27:12.486Z,11.4
2017-10-04T08:28:19.961Z,11.4
2017-10-04T08:29:27.427Z,11.4
2017-10-04T08:30:34.910Z,11.4
2017-10-04T08:31:42.379Z,11.4
2017-10-04T08:32:49.847Z,11.5
2017-10-04T08:33:57.322Z,11.5
2017-10-04T08:35:04.806Z,11.5
2017-10-04T08:36:12.635Z,11.6
2017-10-04T08:37:20.112Z,11.5
2017-10-04T08:38:27.619Z,11.6
2017-10-04T08:39:35.082Z,11.6
2017-10-04T08:40:42.553Z,11.6
2017-10-04T08:41:50.374Z,11.6
2017-10-04T08:42:57.939Z,11.6
2017-10-04T08:44:05.409Z,11.6
2017-10-04T08:45:12.554Z,11.6
2017-10-04T08:46:20.039Z,11.6
2017-10-04T08:47:27.174Z,11.6
2017-10-04T08:48:34.643Z,11.7
2017-10-04T08:49:42.116Z,11.7
2017-10-04T08:50:49.594Z,11.7
2017-10-04T08:51:57.062Z,11.8
2017-10-04T08:53:04.550Z,11.9
2017-10-04T08:54:11.366Z,11.9
2017-10-04T08:55:18.857Z,11.9
2017-10-04T08:56:26.340Z,12
2017-10-04T08:57:33.811Z,12
2017-10-04T08:58:41.630Z,12
2017-10-04T08:59:48.774Z,11.9
2017-10-04T09:00:56.244Z,11.9
2017-10-04T09:02:03.712Z,11.9
2017-10-04T09:03:11.184Z,11.9
2017-10-04T09:04:19.007Z,12
2017-10-04T09:05:26.475Z,12.2
2017-10-04T09:06:33.954Z,12.2
2017-10-04T09:07:41.087Z,12.2
2017-10-04T09:08:48.559Z,12.1
2017-10-04T09:09:56.042Z,12.1
2017-10-04T09:11:03.527Z,12.1
2017-10-04T09:12:10.667Z,12.1
2017-10-04T09:13:17.807Z,12.1
2017-10-04T09:14:25.283Z,12.1
2017-10-04T09:15:32.786Z,12.2
2017-10-04T09:16:40.252Z,12.3
2017-10-04T09:17:47.724Z,12.3
2017-10-04T09:18:55.194Z,12.3
2017-10-04T09:20:02.675Z,12.4
2017-10-04T09:21:10.501Z,12.4
2017-10-04T09:22:18.157Z,12.5
2017-10-04T09:23:24.979Z,12.5
2017-10-04T09:24:32.454Z,12.5
2017-10-04T09:25:39.932Z,12.5
2017-10-04T09:26:47.754Z,12.5
2017-10-04T09:27:55.227Z,12.7
2017-10-04T09:29:02.702Z,12.6
2017-10-04T09:30:09.846Z,12.6
2017-10-04T09:31:17.313Z,12.7
2017-10-04T09:32:24.784Z,12.8
2017-10-04T09:33:32.261Z,12.9
2017-10-04T09:34:39.777Z,12.8
2017-10-04T09:35:47.249Z,13
2017-10-04T09:36:55.076Z,13
2017-10-04T09:38:02.565Z,12.9
2017-10-04T09:39:10.035Z,12.9
2017-10-04T09:40:17.510Z,13
2017-10-04T09:41:24.981Z,12.9
2017-10-04T09:42:32.805Z,12.9
2017-10-04T09:43:40.274Z,12.9
2017-10-04T09:44:47.747Z,13
2017-10-04T09:45:54.890Z,13.1
2017-10-04T09:47:02.374Z,13.2
2017-10-04T09:48:10.197Z,13.2
2017-10-04T09:49:17.672Z,13.2
2017-10-04T09:50:25.145Z,13.3
2017-10-04T09:51:32.629Z,13.4
2017-10-04T09:52:40.112Z,13.4
2017-10-04T09:53:47.603Z,13.5
2017-10-04T09:54:55.076Z,13.8
2017-10-04T09:56:02.230Z,13.8
2017-10-04T09:57:09.373Z,13.9
2017-10-04T09:58:16.845Z,13.8
2017-10-04T09:59:24.679Z,13.8
2017-10-04T10:00:32.144Z,13.8
2017-10-04T10:01:39.617Z,13.9
2017-10-04T10:02:47.115Z,13.9
2017-10-04T10:03:54.253Z,14.2
2017-10-04T10:05:02.032Z,14.3
2017-10-04T10:06:09.180Z,14.2
2017-10-04T10:07:16.666Z,14.3
2017-10-04T10:08:24.145Z,14.2
2017-10-04T10:09:31.616Z,14.1
2017-10-04T10:10:41.468Z,13.9
2017-10-04T10:11:53.000Z,13.8
2017-10-04T10:13:00.490Z,13.8
2017-10-04T10:14:07.968Z,13.8
2017-10-04T10:15:15.111Z,13.7
2017-10-04T10:16:22.939Z,13.7
2017-10-04T10:17:34.461Z,13.7
2017-10-04T10:19:13.080Z,13.7
2017-10-04T10:20:20.560Z,13.7
2017-10-04T10:21:28.392Z,13.8
2017-10-04T10:22:35.543Z,13.7
2017-10-04T10:23:43.030Z,13.7
2017-10-04T10:24:50.504Z,13.7
2017-10-04T10:25:57.990Z,13.7
2017-10-04T10:27:05.821Z,13.7
2017-10-04T10:28:13.294Z,13.8
2017-10-04T10:29:20.767Z,13.8
2017-10-04T10:30:28.246Z,13.8
2017-10-04T10:31:35.391Z,13.7
2017-10-04T10:32:43.219Z,13.7
2017-10-04T10:33:50.355Z,13.8
2017-10-04T10:34:57.825Z,14.1
2017-10-04T10:36:04.968Z,14.3
2017-10-04T10:37:12.109Z,14.5
2017-10-04T10:38:19.937Z,14.7
2017-10-04T10:39:27.411Z,14.8
2017-10-04T10:40:34.899Z,15
2017-10-04T10:41:42.387Z,15
2017-10-04T10:42:49.858Z,15.1
2017-10-04T10:43:57.680Z,15.1
2017-10-04T10:45:05.154Z,15.2
2017-10-04T10:46:12.635Z,15
2017-10-04T10:47:19.803Z,15
2017-10-04T10:48:26.949Z,15.1
2017-10-04T10:49:34.770Z,15.3
2017-10-04T10:50:42.244Z,15.4
2017-10-04T10:51:49.396Z,15.2
2017-10-04T10:52:56.871Z,15.2
2017-10-04T10:54:04.015Z,15.3
2017-10-04T10:55:11.489Z,15.2
2017-10-04T10:56:18.970Z,15.1
2017-10-04T10:57:26.708Z,15.2
2017-10-04T10:58:34.180Z,15.3
2017-10-04T10:59:42.006Z,15.3
2017-10-04T11:00:49.142Z,15.3
2017-10-04T11:01:56.620Z,15.4
2017-10-04T11:03:04.091Z,15.5
2017-10-04T11:04:11.570Z,15.4
2017-10-04T11:05:19.046Z,15.3
2017-10-04T11:06:26.524Z,15.3
2017-10-04T11:07:34.008Z,15.3
2017-10-04T11:08:41.150Z,15.2
2017-10-04T11:09:48.293Z,15.1
2017-10-04T11:10:55.764Z,15.1
2017-10-04T11:12:03.236Z,15.2
2017-10-04T11:13:10.712Z,15.1
2017-10-04T11:14:18.180Z,14.9
2017-10-04T11:15:25.651Z,15
2017-10-04T11:16:33.127Z,15.1
2017-10-04T11:17:40.602Z,15.1
2017-10-04T11:18:48.175Z,15.2
2017-10-04T11:19:55.651Z,15.5
2017-10-04T11:21:02.799Z,15.8
2017-10-04T11:22:09.947Z,16.1
2017-10-04T11:23:17.427Z,16.3
2017-10-04T11:24:24.575Z,16.5
2017-10-04T11:25:31.727Z,16.6
2017-10-04T11:26:39.202Z,16.4
2017-10-04T11:27:46.683Z,16.2
2017-10-04T11:28:54.158Z,15.9
2017-10-04T11:30:01.636Z,15.8
2017-10-04T11:31:08.777Z,15.7
2017-10-04T11:32:16.252Z,15.8
2017-10-04T11:33:23.736Z,15.8
2017-10-04T11:34:30.885Z,15.9
2017-10-04T11:35:38.380Z,15.8
2017-10-04T11:36:45.541Z,15.5
2017-10-04T11:37:52.316Z,15.2
2017-10-04T11:38:59.797Z,15
2017-10-04T11:40:06.930Z,15.1
2017-10-04T11:41:14.406Z,15.3
2017-10-04T11:42:21.888Z,15.5
2017-10-04T11:43:29.375Z,15.7
2017-10-04T11:44:36.876Z,15.8
2017-10-04T11:45:44.354Z,15.6
2017-10-04T11:46:51.828Z,15.7
2017-10-04T11:47:58.969Z,15.8
2017-10-04T11:49:06.719Z,16.1
2017-10-04T11:50:14.189Z,16.2
2017-10-04T11:51:21.671Z,16.1
2017-10-04T11:52:29.150Z,15.9
2017-10-04T11:53:36.637Z,15.6
2017-10-04T11:54:44.113Z,15.5
2017-10-04T11:55:51.592Z,15.4
2017-10-04T11:56:59.067Z,15.3
2017-10-04T11:58:06.214Z,15.4
2017-10-04T11:59:13.685Z,15.5
2017-10-04T12:00:21.161Z,15.5
2017-10-04T12:01:28.676Z,15.8
2017-10-04T12:02:36.155Z,15.9
2017-10-04T12:03:43.305Z,15.8
2017-10-04T12:04:50.458Z,16
2017-10-04T12:05:57.932Z,16.1
2017-10-04T12:07:05.084Z,15.9
2017-10-04T12:08:12.227Z,15.9
2017-10-04T12:09:19.700Z,15.7
2017-10-04T12:10:27.179Z,15.4
2017-10-04T12:11:34.652Z,15.4
2017-10-04T12:12:42.123Z,15.6
2017-10-04T12:13:49.370Z,15.5
2017-10-04T12:14:57.129Z,15.4
2017-10-04T12:16:04.610Z,15.4
2017-10-04T12:17:12.092Z,15.5
2017-10-04T12:18:19.570Z,15.5
2017-10-04T12:19:27.144Z,15.5
2017-10-04T12:20:34.842Z,15.3
2017-10-04T12:21:42.333Z,15.2
2017-10-04T12:22:49.807Z,15.2
2017-10-04T12:23:57.282Z,15.2
2017-10-04T12:25:04.761Z,15.4
